Time;durP1;ratioP1;P1;durP2;ratioP2;P2;SDS_P1;SDS_P2;PMS_P1;PMS_P2;Temp;Humidity;BMP_temperature;BMP_pressure;BME280_temperature;BME280_humidity;BME280_pressure;Samples;Min_cycle;Max_cycle;Signal;HPM_P1;HPM_P2
2023/05/13 03:18:12;;;;;;;18.00;9.27;;;;;;;;;;6172084;23;20016;-95
2023/05/13 03:21:53;;;;;;;;;;;;;;;;;;;;;
2023/05/13 03:30:54;;;;;;;;;;;;;;;;;;;;;
2023/05/13 03:33:40;;;;;;;15.07;9.68;;;;;;;;;;6157336;23;20127;-96
2023/05/13 03:36:49;;;;;;;17.90;9.48;;;;;;;;;;6162890;23;20005;-96
2023/05/13 03:46:28;;;;;;;;;;;;;;;;;;;;;
2023/05/13 03:52:26;;;;;;;15.45;9.00;;;;;;;;;;6115151;23;20002;-96
2023/05/13 03:58:39;;;;;;;13.57;8.57;;;;;;;;;;6039991;23;20015;-96
2023/05/13 06:37:07;;;;;;;;;;;;;;;;;;;;;
2023/05/13 07:15:59;;;;;;;18.35;8.23;;;;;;;;;;5872099;24;20079;-96
2023/05/13 07:47:30;;;;;;;;;;;;;;;;;;;;;
2023/05/13 08:56:49;;;;;;;;;;;;;;;;;;;;;
2023/05/13 14:44:06;;;;;;;;;;;;;;;;;;;;;
2023/05/13 14:59:04;;;;;;;5.75;3.47;;;;;;;;;;6220764;23;20019;-96
2023/05/13 15:21:18;;;;;;;;;;;;;;;;;;;;;
2023/05/13 15:24:56;;;;;;;6.13;2.70;;;;;;;;;;6152264;23;20104;-96
2023/05/13 15:30:37;;;;;;;;;;;;;;;;;;;;;
2023/05/13 15:33:31;;;;;;;4.28;2.60;;;;;;;;;;6037799;23;20531;-96
2023/05/13 15:36:41;;;;;;;;;;;;;;;;;;;;;
2023/05/13 15:39:36;;;;;;;8.73;2.95;;;;;;;;;;6312140;22;20018;-96
2023/05/13 16:02:33;;;;;;;;;;;;;;;;;;;;;
2023/05/13 16:05:38;;;;;;;;;;;;;;;;;;;;;
2023/05/13 16:11:52;;;;;;;5.43;2.65;;;;;;;;;;6211731;23;19997;-94
2023/05/13 16:17:34;;;;;;;3.22;2.25;;;;;;;;;;6133361;23;20330;-96
2023/05/13 16:20:31;;;;;;;3.78;2.50;;;;;;;;;;6188530;23;20005;-95
2023/05/13 16:23:33;;;;;;;;;;;;;;;;;;;;;
2023/05/13 16:32:53;;;;;;;;;;;;;;;;;;;;;
2023/05/13 16:35:55;;;;;;;4.50;3.10;;;;;;;;;;6166572;23;20111;-96
2023/05/13 16:38:45;;;;;;;;;;;;;;;;;;;;;
2023/05/13 16:44:38;;;;;;;;;;;;;;;;;;;;;
2023/05/13 16:53:12;;;;;;;4.45;3.63;;;;;;;;;;6203872;23;20076;-96
2023/05/13 17:05:11;;;;;;;6.88;3.30;;;;;;;;;;6204343;23;19997;-96
2023/05/13 17:07:59;;;;;;;5.53;3.15;;;;;;;;;;6187092;23;20005;-96
2023/05/13 17:10:50;;;;;;;5.75;3.40;;;;;;;;;;6189558;23;19996;-96
2023/05/13 17:13:31;;;;;;;;;;;;;;;;;;;;;
2023/05/13 17:16:23;;;;;;;;;;;;;;;;;;;;;
2023/05/13 17:19:10;;;;;;;;;;;;;;;;;;;;;
2023/05/13 17:22:05;;;;;;;7.20;3.58;;;;;;;;;;6211432;23;20522;-95
2023/05/13 17:24:57;;;;;;;7.55;4.20;;;;;;;;;;6188383;23;20004;-96
2023/05/13 17:28:10;;;;;;;;;;;;;;;;;;;;;
2023/05/13 17:34:12;;;;;;;4.75;3.15;;;;;;;;;;6214314;23;20039;-96
2023/05/13 17:36:58;;;;;;;7.22;4.45;;;;;;;;;;6313117;22;20006;-96
2023/05/13 17:39:56;;;;;;;;;;;;;;;;;;;;;
2023/05/13 17:42:48;;;;;;;5.82;3.58;;;;;;;;;;6339478;22;20070;-96
2023/05/13 17:45:23;;;;;;;;;;;;;;;;;;;;;
2023/05/13 17:47:49;;;;;;;7.40;3.47;;;;;;;;;;6338155;22;20018;-95
2023/05/13 17:50:48;;;;;;;;;;;;;;;;;;;;;
2023/05/13 17:53:23;;;;;;;7.10;3.70;;;;;;;;;;6339989;22;20069;-96
2023/05/13 17:56:09;;;;;;;;;;;;;;;;;;;;;
2023/05/13 17:58:59;;;;;;;7.28;3.95;;;;;;;;;;6339848;22;20066;-96
2023/05/13 18:07:39;;;;;;;;;;;;;;;;;;;;;
2023/05/13 18:13:05;;;;;;;6.85;4.35;;;;;;;;;;6259693;22;20009;-96
2023/05/13 18:15:45;;;;;;;6.75;4.63;;;;;;;;;;6308962;22;20313;-96
2023/05/13 18:18:28;;;;;;;6.40;4.35;;;;;;;;;;6310385;22;20449;-95
2023/05/13 18:21:50;;;;;;;6.88;4.25;;;;;;;;;;6309521;22;20002;-96
2023/05/13 18:27:23;;;;;;;;;;;;;;;;;;;;;
2023/05/13 18:30:24;;;;;;;;;;;;;;;;;;;;;
2023/05/13 18:33:13;;;;;;;;;;;;;;;;;;;;;
2023/05/13 18:35:44;;;;;;;5.03;3.55;;;;;;;;;;6338765;22;20082;-96
2023/05/13 18:38:49;;;;;;;5.82;3.58;;;;;;;;;;6310886;22;20014;-96
2023/05/13 18:44:41;;;;;;;5.07;3.47;;;;;;;;;;6271779;22;20055;-96
2023/05/13 18:47:25;;;;;;;;;;;;;;;;;;;;;
2023/05/13 18:50:21;;;;;;;5.90;3.75;;;;;;;;;;6338943;22;20074;-95
2023/05/13 18:52:55;;;;;;;6.18;3.55;;;;;;;;;;6310500;22;19995;-96
2023/05/13 18:56:11;;;;;;;;;;;;;;;;;;;;;
2023/05/13 18:59:08;;;;;;;;;;;;;;;;;;;;;
2023/05/13 19:01:49;;;;;;;;;;;;;;;;;;;;;
2023/05/13 19:13:57;;;;;;;;;;;;;;;;;;;;;
2023/05/13 19:19:42;;;;;;;4.88;3.40;;;;;;;;;;6314123;22;20007;-95
2023/05/13 19:22:21;;;;;;;8.18;3.47;;;;;;;;;;6306750;22;20038;-95
2023/05/13 19:24:52;;;;;;;4.57;3.25;;;;;;;;;;6310453;22;20059;-96
2023/05/13 19:27:20;;;;;;;6.00;3.47;;;;;;;;;;6310332;22;20009;-93
2023/05/13 19:30:06;;;;;;;5.30;3.25;;;;;;;;;;6307567;22;20010;-95
2023/05/13 19:33:02;;;;;;;;;;;;;;;;;;;;;
2023/05/13 19:35:57;;;;;;;5.38;3.00;;;;;;;;;;6339347;22;20066;-94
2023/05/13 19:41:38;;;;;;;7.75;3.58;;;;;;;;;;6336115;22;20288;-95
2023/05/13 19:44:09;;;;;;;6.55;3.30;;;;;;;;;;6311519;22;19999;-96
2023/05/13 19:46:37;;;;;;;4.68;3.05;;;;;;;;;;6310991;22;20071;-96
2023/05/13 19:49:08;;;;;;;4.80;3.47;;;;;;;;;;6309614;22;20002;-96
2023/05/13 19:52:00;;;;;;;6.50;3.93;;;;;;;;;;6313428;22;20011;-95
2023/05/13 19:54:28;;;;;;;6.65;3.58;;;;;;;;;;6311401;22;20086;-96
2023/05/13 19:57:04;;;;;;;7.70;3.72;;;;;;;;;;6312514;22;20064;-95
2023/05/13 19:59:42;;;;;;;;;;;;;;;;;;;;;
2023/05/13 20:02:33;;;;;;;6.30;3.90;;;;;;;;;;6338394;22;20094;-95
2023/05/13 20:05:07;;;;;;;5.53;3.72;;;;;;;;;;6309838;22;19991;-95
2023/05/13 20:07:35;;;;;;;4.10;2.95;;;;;;;;;;6308230;22;20022;-96
2023/05/13 20:10:12;;;;;;;5.40;3.53;;;;;;;;;;6311203;22;19994;-96
2023/05/13 20:12:43;;;;;;;5.25;3.30;;;;;;;;;;6310638;22;19999;-96
2023/05/13 20:15:28;;;;;;;7.22;3.33;;;;;;;;;;6311902;22;20002;-95
2023/05/13 20:21:28;;;;;;;6.97;3.03;;;;;;;;;;6338933;22;20329;-94
2023/05/13 20:26:53;;;;;;;6.10;3.78;;;;;;;;;;6339383;22;20642;-96
2023/05/13 20:29:20;;;;;;;5.60;3.65;;;;;;;;;;6309693;22;20010;-95
2023/05/13 20:32:12;;;;;;;5.95;3.67;;;;;;;;;;6311334;22;20037;-94
2023/05/13 20:40:19;;;;;;;7.63;3.78;;;;;;;;;;6274497;22;20002;-94
2023/05/13 20:42:46;;;;;;;9.50;4.10;;;;;;;;;;6310582;22;20086;-95
2023/05/13 20:45:54;;;;;;;5.10;3.35;;;;;;;;;;6310634;22;20003;-95
2023/05/13 20:48:30;;;;;;;5.55;3.60;;;;;;;;;;6311914;22;19999;-95
2023/05/13 20:51:04;;;;;;;6.18;3.85;;;;;;;;;;6309444;22;20026;-96
2023/05/13 20:53:49;;;;;;;7.32;3.90;;;;;;;;;;6311388;22;19998;-95
2023/05/13 20:56:22;;;;;;;7.55;4.30;;;;;;;;;;6310842;22;20019;-95
2023/05/13 20:58:51;;;;;;;9.52;4.53;;;;;;;;;;6311260;22;19999;-96
2023/05/13 21:01:16;;;;;;;6.43;4.35;;;;;;;;;;6308588;22;20101;-96
2023/05/13 21:06:42;;;;;;;;;;;;;;;;;;;;;
2023/05/13 21:09:18;;;;;;;6.70;4.55;;;;;;;;;;6338312;22;20070;-95
2023/05/13 21:11:57;;;;;;;8.20;4.30;;;;;;;;;;6310430;22;20094;-95
2023/05/13 21:17:21;;;;;;;6.43;3.90;;;;;;;;;;6325585;22;19995;-95
2023/05/13 21:20:11;;;;;;;6.70;4.40;;;;;;;;;;6309113;22;19999;-95
2023/05/13 21:22:36;;;;;;;9.35;4.70;;;;;;;;;;6312050;22;20023;-96
2023/05/13 21:25:35;;;;;;;;;;;;;;;;;;;;;
2023/05/13 21:31:16;;;;;;;6.78;4.45;;;;;;;;;;6327089;22;19999;-95
2023/05/13 21:33:44;;;;;;;8.00;4.57;;;;;;;;;;6308578;22;20033;-95
2023/05/13 21:36:22;;;;;;;;;;;;;;;;;;;;;
2023/05/13 21:38:52;;;;;;;7.72;4.30;;;;;;;;;;6335057;22;20062;-96
2023/05/13 21:41:21;;;;;;;10.93;4.65;;;;;;;;;;6311240;22;20006;-96
2023/05/13 21:43:55;;;;;;;8.45;4.90;;;;;;;;;;6309058;22;20017;-96
2023/05/13 21:46:33;;;;;;;;;;;;;;;;;;;;;
2023/05/13 21:49:43;;;;;;;7.93;4.50;;;;;;;;;;6337578;22;20093;-95
2023/05/13 21:52:17;;;;;;;;;;;;;;;;;;;;;
2023/05/13 21:55:05;;;;;;;7.30;4.82;;;;;;;;;;6338692;22;20090;-95
2023/05/13 21:57:35;;;;;;;7.05;4.57;;;;;;;;;;6296027;22;20433;-95
2023/05/13 22:00:09;;;;;;;8.85;4.93;;;;;;;;;;6309527;22;20021;-96
2023/05/13 22:02:37;;;;;;;8.77;4.85;;;;;;;;;;6310550;22;20011;-95
2023/05/13 22:05:18;;;;;;;8.73;5.40;;;;;;;;;;6311096;22;20003;-96
2023/05/13 22:07:58;;;;;;;9.43;5.28;;;;;;;;;;6310662;22;20087;-95
2023/05/13 22:10:47;;;;;;;7.35;5.18;;;;;;;;;;6309624;22;20058;-95
2023/05/13 22:13:35;;;;;;;7.72;5.10;;;;;;;;;;6336797;22;20005;-96
2023/05/13 22:16:00;;;;;;;7.50;5.25;;;;;;;;;;6309247;22;20319;-95
2023/05/13 22:18:45;;;;;;;7.47;5.15;;;;;;;;;;6308607;22;20003;-96
2023/05/13 22:21:11;;;;;;;8.30;5.53;;;;;;;;;;6310221;22;20026;-96
2023/05/13 22:26:50;;;;;;;8.25;5.35;;;;;;;;;;6182323;23;20005;-95
2023/05/13 22:29:29;;;;;;;;;;;;;;;;;;;;;
2023/05/13 22:32:12;;;;;;;8.70;5.47;;;;;;;;;;6338520;22;20379;-96
2023/05/13 22:35:06;;;;;;;8.98;5.47;;;;;;;;;;6310258;22;20003;-95
2023/05/13 22:37:35;;;;;;;9.27;5.57;;;;;;;;;;6330118;22;20441;-94
2023/05/13 22:40:00;;;;;;;10.52;5.22;;;;;;;;;;6309933;22;20085;-94
2023/05/13 22:42:45;;;;;;;9.15;6.38;;;;;;;;;;6309908;22;20011;-95
2023/05/13 22:45:26;;;;;;;;;;;;;;;;;;;;;
2023/05/13 22:50:40;;;;;;;18.52;8.10;;;;;;;;;;6334237;22;20056;-95
2023/05/13 22:53:08;;;;;;;13.02;8.50;;;;;;;;;;6309818;22;20006;-94
2023/05/13 22:55:38;;;;;;;15.55;8.40;;;;;;;;;;6308520;22;20003;-95
2023/05/13 22:58:13;;;;;;;13.48;9.23;;;;;;;;;;6308381;22;20003;-94
2023/05/13 23:00:44;;;;;;;12.90;8.73;;;;;;;;;;6308621;22;20007;-95
2023/05/13 23:03:09;;;;;;;16.08;9.77;;;;;;;;;;6309221;22;20148;-95
2023/05/13 23:05:53;;;;;;;17.42;9.95;;;;;;;;;;6309645;22;20460;-94
2023/05/13 23:08:23;;;;;;;15.95;8.43;;;;;;;;;;6311510;22;20371;-95
2023/05/13 23:10:58;;;;;;;18.98;10.20;;;;;;;;;;6310410;22;20064;-94
2023/05/13 23:13:26;;;;;;;17.70;9.32;;;;;;;;;;6312941;22;20008;-95
2023/05/13 23:18:53;;;;;;;16.65;9.45;;;;;;;;;;6332135;22;19995;-95
2023/05/13 23:21:32;;;;;;;17.60;9.50;;;;;;;;;;6312263;22;20007;-95
2023/05/13 23:26:53;;;;;;;16.63;10.25;;;;;;;;;;6340995;22;20002;-95
2023/05/13 23:29:26;;;;;;;19.70;10.90;;;;;;;;;;6309238;22;20003;-96
2023/05/13 23:31:56;;;;;;;16.85;10.70;;;;;;;;;;6308919;22;20014;-96
2023/05/13 23:34:51;;;;;;;13.02;7.70;;;;;;;;;;6310800;22;19995;-96
2023/05/13 23:37:36;;;;;;;15.68;10.00;;;;;;;;;;6310708;22;19999;-96
2023/05/13 23:40:22;;;;;;;17.95;10.70;;;;;;;;;;6312282;22;20030;-96
2023/05/13 23:42:55;;;;;;;15.80;10.32;;;;;;;;;;6310367;22;20018;-96
2023/05/13 23:48:38;;;;;;;;;;;;;;;;;;;;;
2023/05/13 23:51:12;;;;;;;21.73;11.20;;;;;;;;;;6339279;22;20110;-96
2023/05/13 23:53:50;;;;;;;;;;;;;;;;;;;;;
2023/05/13 23:56:57;;;;;;;22.08;11.52;;;;;;;;;;6338640;22;20493;-96
2023/05/13 23:59:27;;;;;;;21.35;12.00;;;;;;;;;;6333289;22;20007;-96
